Jeffersonville, Ohio
Current Conditions -  °F | °C
As of 4:56 AM on Sunday 23 Nov 2014 (Local Time) from KSGH Reporting Station
Overcast Overcast  
Wind Chill: 46°   Ceiling: 4800
Heat Index: 49°   Visibility: 9mi
Dew Point: 39°   Wind: 7mph
Humidity: 68%   Direction: 160°SSE
Pressure: 30.02"   Gusts: NA
Location:  39.65°N, 83.56°W
Report Text: KSGH 230956Z AUTO 16006KT 9SM FEW033 OVC048 09/04 A3002 RMK AO2 T00940038 OVC V BKN SLP168 $
Loading
Personal Weather Stations






























Interactive Weather Map New forecast layout! Learn more

10-Day Weather Forecast

Advertisements
Track Severe Weather on mobile